sensor_id;sensor_type;location;lat;lon;timestamp;P1;durP1;ratioP1;P2;durP2;ratioP2
31594;SDS011;18200;48.726;8.892;2022-11-12T00:00:22;20.92;;;13.13;;
31594;SDS011;18200;48.726;8.892;2022-11-12T00:04:41;17.35;;;11.82;;
31594;SDS011;18200;48.726;8.892;2022-11-12T00:09:01;16.98;;;11.02;;
31594;SDS011;18200;48.726;8.892;2022-11-12T00:13:20;30.92;;;11.48;;
31594;SDS011;18200;48.726;8.892;2022-11-12T00:17:39;14.43;;;10.52;;
31594;SDS011;18200;48.726;8.892;2022-11-12T00:21:58;15.75;;;10.45;;
31594;SDS011;18200;48.726;8.892;2022-11-12T00:26:17;18.67;;;10.13;;
31594;SDS011;18200;48.726;8.892;2022-11-12T00:30:37;28.95;;;11.13;;
31594;SDS011;18200;48.726;8.892;2022-11-12T00:34:57;13.13;;;9.38;;
31594;SDS011;18200;48.726;8.892;2022-11-12T00:39:16;19.63;;;10.95;;
31594;SDS011;18200;48.726;8.892;2022-11-12T00:43:35;17.05;;;10.65;;
31594;SDS011;18200;48.726;8.892;2022-11-12T00:47:55;14.43;;;10.30;;
31594;SDS011;18200;48.726;8.892;2022-11-12T00:52:14;19.27;;;10.98;;
31594;SDS011;18200;48.726;8.892;2022-11-12T00:56:33;14.05;;;9.07;;
31594;SDS011;18200;48.726;8.892;2022-11-12T01:00:52;14.07;;;9.77;;
31594;SDS011;18200;48.726;8.892;2022-11-12T01:05:11;12.18;;;9.18;;
31594;SDS011;18200;48.726;8.892;2022-11-12T01:09:30;13.55;;;9.77;;
31594;SDS011;18200;48.726;8.892;2022-11-12T01:13:57;14.63;;;9.25;;
31594;SDS011;18200;48.726;8.892;2022-11-12T01:18:20;13.07;;;9.25;;
31594;SDS011;18200;48.726;8.892;2022-11-12T01:22:39;13.15;;;9.40;;
31594;SDS011;18200;48.726;8.892;2022-11-12T01:26:57;12.30;;;9.05;;
31594;SDS011;18200;48.726;8.892;2022-11-12T01:35:35;14.30;;;9.40;;
31594;SDS011;18200;48.726;8.892;2022-11-12T01:39:54;12.75;;;8.85;;
31594;SDS011;18200;48.726;8.892;2022-11-12T01:44:17;13.05;;;9.25;;
31594;SDS011;18200;48.726;8.892;2022-11-12T01:48:38;14.88;;;8.88;;
31594;SDS011;18200;48.726;8.892;2022-11-12T01:53:05;12.63;;;8.80;;
31594;SDS011;18200;48.726;8.892;2022-11-12T01:57:29;11.70;;;8.68;;
31594;SDS011;18200;48.726;8.892;2022-11-12T02:01:56;11.55;;;7.35;;
31594;SDS011;18200;48.726;8.892;2022-11-12T02:06:15;11.13;;;8.32;;
31594;SDS011;18200;48.726;8.892;2022-11-12T02:10:36;11.52;;;7.80;;
31594;SDS011;18200;48.726;8.892;2022-11-12T02:14:56;11.55;;;8.18;;
31594;SDS011;18200;48.726;8.892;2022-11-12T02:19:16;12.98;;;8.32;;
31594;SDS011;18200;48.726;8.892;2022-11-12T02:23:35;13.00;;;8.57;;
31594;SDS011;18200;48.726;8.892;2022-11-12T02:27:55;14.00;;;9.02;;
31594;SDS011;18200;48.726;8.892;2022-11-12T02:32:16;20.02;;;8.68;;
31594;SDS011;18200;48.726;8.892;2022-11-12T02:36:35;15.65;;;8.73;;
31594;SDS011;18200;48.726;8.892;2022-11-12T02:40:54;37.95;;;11.05;;
31594;SDS011;18200;48.726;8.892;2022-11-12T02:45:13;110.50;;;12.55;;
31594;SDS011;18200;48.726;8.892;2022-11-12T02:49:33;45.63;;;11.10;;
31594;SDS011;18200;48.726;8.892;2022-11-12T02:53:52;13.18;;;9.00;;
31594;SDS011;18200;48.726;8.892;2022-11-12T02:58:11;14.95;;;9.23;;
31594;SDS011;18200;48.726;8.892;2022-11-12T03:02:30;12.73;;;8.20;;
31594;SDS011;18200;48.726;8.892;2022-11-12T03:06:49;10.38;;;7.30;;
31594;SDS011;18200;48.726;8.892;2022-11-12T03:11:09;12.50;;;8.32;;
31594;SDS011;18200;48.726;8.892;2022-11-12T03:15:29;16.02;;;8.52;;
31594;SDS011;18200;48.726;8.892;2022-11-12T03:19:49;14.75;;;8.50;;
31594;SDS011;18200;48.726;8.892;2022-11-12T03:24:07;15.25;;;9.15;;
31594;SDS011;18200;48.726;8.892;2022-11-12T03:28:27;13.02;;;8.77;;
31594;SDS011;18200;48.726;8.892;2022-11-12T03:32:46;13.40;;;8.65;;
31594;SDS011;18200;48.726;8.892;2022-11-12T03:37:05;15.57;;;9.43;;
31594;SDS011;18200;48.726;8.892;2022-11-12T03:41:27;13.50;;;8.93;;
31594;SDS011;18200;48.726;8.892;2022-11-12T03:45:46;12.90;;;8.60;;
31594;SDS011;18200;48.726;8.892;2022-11-12T03:50:05;13.65;;;9.07;;
31594;SDS011;18200;48.726;8.892;2022-11-12T03:54:25;13.55;;;8.43;;
31594;SDS011;18200;48.726;8.892;2022-11-12T03:58:43;14.02;;;8.85;;
31594;SDS011;18200;48.726;8.892;2022-11-12T04:03:02;13.65;;;7.78;;
31594;SDS011;18200;48.726;8.892;2022-11-12T04:07:21;11.00;;;8.07;;
31594;SDS011;18200;48.726;8.892;2022-11-12T04:11:59;13.00;;;8.75;;
31594;SDS011;18200;48.726;8.892;2022-11-12T04:16:38;11.38;;;7.35;;
31594;SDS011;18200;48.726;8.892;2022-11-12T04:21:15;10.05;;;6.70;;
31594;SDS011;18200;48.726;8.892;2022-11-12T04:25:54;12.93;;;7.93;;
31594;SDS011;18200;48.726;8.892;2022-11-12T04:30:31;21.25;;;7.85;;
31594;SDS011;18200;48.726;8.892;2022-11-12T04:34:50;12.35;;;8.05;;
31594;SDS011;18200;48.726;8.892;2022-11-12T04:39:09;15.90;;;9.82;;
31594;SDS011;18200;48.726;8.892;2022-11-12T04:43:28;11.55;;;7.95;;
31594;SDS011;18200;48.726;8.892;2022-11-12T04:48:06;13.05;;;8.07;;
31594;SDS011;18200;48.726;8.892;2022-11-12T04:52:25;12.02;;;7.60;;
31594;SDS011;18200;48.726;8.892;2022-11-12T04:56:46;11.75;;;8.07;;
31594;SDS011;18200;48.726;8.892;2022-11-12T05:01:04;11.48;;;7.70;;
31594;SDS011;18200;48.726;8.892;2022-11-12T05:05:23;12.82;;;8.13;;
31594;SDS011;18200;48.726;8.892;2022-11-12T05:09:42;10.88;;;7.32;;
31594;SDS011;18200;48.726;8.892;2022-11-12T05:14:02;10.98;;;6.93;;
31594;SDS011;18200;48.726;8.892;2022-11-12T05:18:21;10.30;;;6.63;;
31594;SDS011;18200;48.726;8.892;2022-11-12T05:22:40;10.40;;;7.00;;
31594;SDS011;18200;48.726;8.892;2022-11-12T05:26:59;9.82;;;7.05;;
31594;SDS011;18200;48.726;8.892;2022-11-12T05:31:18;10.80;;;6.82;;
31594;SDS011;18200;48.726;8.892;2022-11-12T05:35:37;8.90;;;6.25;;
31594;SDS011;18200;48.726;8.892;2022-11-12T05:39:56;8.65;;;6.13;;
31594;SDS011;18200;48.726;8.892;2022-11-12T05:44:15;11.77;;;7.00;;
31594;SDS011;18200;48.726;8.892;2022-11-12T05:48:34;8.10;;;5.80;;
31594;SDS011;18200;48.726;8.892;2022-11-12T05:52:53;9.05;;;6.13;;
31594;SDS011;18200;48.726;8.892;2022-11-12T05:57:12;10.45;;;6.30;;
31594;SDS011;18200;48.726;8.892;2022-11-12T06:01:31;10.07;;;6.78;;
31594;SDS011;18200;48.726;8.892;2022-11-12T06:05:51;11.65;;;7.13;;
31594;SDS011;18200;48.726;8.892;2022-11-12T06:10:10;10.60;;;6.82;;
31594;SDS011;18200;48.726;8.892;2022-11-12T06:14:28;9.63;;;6.40;;
31594;SDS011;18200;48.726;8.892;2022-11-12T06:18:47;8.55;;;5.65;;
31594;SDS011;18200;48.726;8.892;2022-11-12T06:23:06;7.57;;;5.78;;
31594;SDS011;18200;48.726;8.892;2022-11-12T06:27:26;9.48;;;6.47;;
31594;SDS011;18200;48.726;8.892;2022-11-12T06:31:45;10.15;;;6.78;;
31594;SDS011;18200;48.726;8.892;2022-11-12T06:36:04;11.57;;;7.30;;
31594;SDS011;18200;48.726;8.892;2022-11-12T06:40:24;13.10;;;8.40;;
31594;SDS011;18200;48.726;8.892;2022-11-12T06:44:43;10.73;;;7.00;;
31594;SDS011;18200;48.726;8.892;2022-11-12T06:49:02;11.10;;;7.57;;
31594;SDS011;18200;48.726;8.892;2022-11-12T06:53:22;17.45;;;10.40;;
31594;SDS011;18200;48.726;8.892;2022-11-12T06:57:41;25.73;;;16.42;;
31594;SDS011;18200;48.726;8.892;2022-11-12T07:02:00;12.32;;;8.43;;
31594;SDS011;18200;48.726;8.892;2022-11-12T07:06:19;13.15;;;8.77;;
31594;SDS011;18200;48.726;8.892;2022-11-12T07:10:38;17.25;;;11.40;;
31594;SDS011;18200;48.726;8.892;2022-11-12T07:14:57;10.95;;;8.02;;
31594;SDS011;18200;48.726;8.892;2022-11-12T07:19:16;13.02;;;8.75;;
31594;SDS011;18200;48.726;8.892;2022-11-12T07:23:36;17.45;;;9.73;;
31594;SDS011;18200;48.726;8.892;2022-11-12T07:27:55;22.02;;;12.38;;
31594;SDS011;18200;48.726;8.892;2022-11-12T07:32:14;16.45;;;10.45;;
31594;SDS011;18200;48.726;8.892;2022-11-12T07:36:33;17.88;;;9.75;;
31594;SDS011;18200;48.726;8.892;2022-11-12T07:40:59;14.43;;;8.90;;
31594;SDS011;18200;48.726;8.892;2022-11-12T07:45:27;18.55;;;10.65;;
31594;SDS011;18200;48.726;8.892;2022-11-12T07:49:47;16.55;;;9.80;;
31594;SDS011;18200;48.726;8.892;2022-11-12T07:54:06;17.08;;;9.60;;
31594;SDS011;18200;48.726;8.892;2022-11-12T07:58:25;16.15;;;8.90;;
31594;SDS011;18200;48.726;8.892;2022-11-12T08:02:45;15.38;;;8.93;;
31594;SDS011;18200;48.726;8.892;2022-11-12T08:07:04;13.32;;;8.38;;
31594;SDS011;18200;48.726;8.892;2022-11-12T08:11:24;10.35;;;7.30;;
31594;SDS011;18200;48.726;8.892;2022-11-12T08:15:43;11.27;;;7.05;;
31594;SDS011;18200;48.726;8.892;2022-11-12T08:20:02;9.35;;;6.53;;
31594;SDS011;18200;48.726;8.892;2022-11-12T08:24:21;15.02;;;7.93;;
31594;SDS011;18200;48.726;8.892;2022-11-12T08:28:40;10.52;;;7.35;;
31594;SDS011;18200;48.726;8.892;2022-11-12T08:33:03;10.98;;;7.43;;
31594;SDS011;18200;48.726;8.892;2022-11-12T08:37:23;10.63;;;6.57;;
31594;SDS011;18200;48.726;8.892;2022-11-12T08:41:42;9.07;;;6.45;;
31594;SDS011;18200;48.726;8.892;2022-11-12T08:46:02;10.60;;;6.65;;
31594;SDS011;18200;48.726;8.892;2022-11-12T08:50:21;10.23;;;6.05;;
31594;SDS011;18200;48.726;8.892;2022-11-12T08:54:40;7.03;;;5.50;;
31594;SDS011;18200;48.726;8.892;2022-11-12T08:58:59;8.35;;;5.10;;
31594;SDS011;18200;48.726;8.892;2022-11-12T09:03:19;6.35;;;4.78;;
31594;SDS011;18200;48.726;8.892;2022-11-12T09:07:40;5.95;;;5.07;;
31594;SDS011;18200;48.726;8.892;2022-11-12T09:11:59;6.60;;;4.85;;
31594;SDS011;18200;48.726;8.892;2022-11-12T09:16:18;7.57;;;5.13;;
31594;SDS011;18200;48.726;8.892;2022-11-12T09:20:39;6.25;;;4.78;;
31594;SDS011;18200;48.726;8.892;2022-11-12T09:24:58;6.45;;;5.00;;
31594;SDS011;18200;48.726;8.892;2022-11-12T09:29:16;8.95;;;5.20;;
31594;SDS011;18200;48.726;8.892;2022-11-12T09:33:36;9.77;;;4.53;;
31594;SDS011;18200;48.726;8.892;2022-11-12T09:37:56;5.85;;;4.63;;
31594;SDS011;18200;48.726;8.892;2022-11-12T09:42:16;4.68;;;3.85;;
31594;SDS011;18200;48.726;8.892;2022-11-12T09:46:40;6.00;;;4.55;;
31594;SDS011;18200;48.726;8.892;2022-11-12T09:51:08;6.28;;;4.00;;
31594;SDS011;18200;48.726;8.892;2022-11-12T09:55:33;4.07;;;3.55;;
31594;SDS011;18200;48.726;8.892;2022-11-12T09:59:55;4.93;;;4.10;;
31594;SDS011;18200;48.726;8.892;2022-11-12T10:04:21;9.90;;;5.18;;
31594;SDS011;18200;48.726;8.892;2022-11-12T10:09:00;4.97;;;3.75;;
31594;SDS011;18200;48.726;8.892;2022-11-12T10:27:20;12.20;;;6.10;;
31594;SDS011;18200;48.726;8.892;2022-11-12T10:31:40;8.88;;;4.00;;
31594;SDS011;18200;48.726;8.892;2022-11-12T10:36:07;4.93;;;3.25;;
31594;SDS011;18200;48.726;8.892;2022-11-12T10:40:35;6.10;;;4.00;;
31594;SDS011;18200;48.726;8.892;2022-11-12T10:45:05;4.70;;;3.65;;
31594;SDS011;18200;48.726;8.892;2022-11-12T10:49:38;4.85;;;3.55;;
31594;SDS011;18200;48.726;8.892;2022-11-12T10:53:57;4.38;;;3.30;;
31594;SDS011;18200;48.726;8.892;2022-11-12T10:58:17;4.72;;;3.50;;
31594;SDS011;18200;48.726;8.892;2022-11-12T11:02:46;4.78;;;3.10;;
31594;SDS011;18200;48.726;8.892;2022-11-12T11:11:48;5.07;;;3.47;;
31594;SDS011;18200;48.726;8.892;2022-11-12T11:16:19;5.15;;;3.50;;
31594;SDS011;18200;48.726;8.892;2022-11-12T11:20:43;4.00;;;3.00;;
31594;SDS011;18200;48.726;8.892;2022-11-12T11:25:20;4.70;;;3.67;;
31594;SDS011;18200;48.726;8.892;2022-11-12T11:34:20;5.00;;;4.05;;
31594;SDS011;18200;48.726;8.892;2022-11-12T11:38:55;10.82;;;3.92;;
31594;SDS011;18200;48.726;8.892;2022-11-12T11:57:14;5.28;;;3.70;;
31594;SDS011;18200;48.726;8.892;2022-11-12T12:01:47;5.05;;;3.15;;
31594;SDS011;18200;48.726;8.892;2022-11-12T12:06:18;4.07;;;3.13;;
31594;SDS011;18200;48.726;8.892;2022-11-12T12:25:23;6.53;;;4.38;;
31594;SDS011;18200;48.726;8.892;2022-11-12T12:29:48;6.88;;;3.97;;
31594;SDS011;18200;48.726;8.892;2022-11-12T12:34:14;4.20;;;3.45;;
31594;SDS011;18200;48.726;8.892;2022-11-12T12:38:51;5.30;;;2.90;;
31594;SDS011;18200;48.726;8.892;2022-11-12T12:43:32;6.95;;;3.17;;
31594;SDS011;18200;48.726;8.892;2022-11-12T12:47:55;3.80;;;2.80;;
31594;SDS011;18200;48.726;8.892;2022-11-12T12:52:16;6.65;;;3.80;;
31594;SDS011;18200;48.726;8.892;2022-11-12T13:05:40;7.47;;;5.28;;
31594;SDS011;18200;48.726;8.892;2022-11-12T13:15:09;8.25;;;4.95;;
31594;SDS011;18200;48.726;8.892;2022-11-12T13:19:34;7.88;;;5.60;;
31594;SDS011;18200;48.726;8.892;2022-11-12T13:23:56;11.23;;;6.55;;
31594;SDS011;18200;48.726;8.892;2022-11-12T13:28:26;8.43;;;6.15;;
31594;SDS011;18200;48.726;8.892;2022-11-12T13:37:04;12.80;;;6.30;;
31594;SDS011;18200;48.726;8.892;2022-11-12T13:41:23;9.18;;;6.53;;
31594;SDS011;18200;48.726;8.892;2022-11-12T13:50:28;8.40;;;6.75;;
31594;SDS011;18200;48.726;8.892;2022-11-12T13:54:47;18.48;;;8.52;;
31594;SDS011;18200;48.726;8.892;2022-11-12T13:59:20;15.57;;;8.20;;
31594;SDS011;18200;48.726;8.892;2022-11-12T14:03:44;11.48;;;8.13;;
31594;SDS011;18200;48.726;8.892;2022-11-12T14:12:50;20.15;;;11.05;;
31594;SDS011;18200;48.726;8.892;2022-11-12T14:17:37;11.30;;;8.70;;
31594;SDS011;18200;48.726;8.892;2022-11-12T14:26:32;10.82;;;7.85;;
31594;SDS011;18200;48.726;8.892;2022-11-12T14:30:54;8.38;;;6.55;;
31594;SDS011;18200;48.726;8.892;2022-11-12T14:39:42;10.55;;;7.57;;
31594;SDS011;18200;48.726;8.892;2022-11-12T14:44:02;16.00;;;8.48;;
31594;SDS011;18200;48.726;8.892;2022-11-12T14:48:23;12.93;;;8.80;;
31594;SDS011;18200;48.726;8.892;2022-11-12T14:52:43;12.20;;;7.80;;
31594;SDS011;18200;48.726;8.892;2022-11-12T14:57:08;12.10;;;8.02;;
31594;SDS011;18200;48.726;8.892;2022-11-12T15:01:36;12.15;;;8.45;;
31594;SDS011;18200;48.726;8.892;2022-11-12T15:05:58;10.70;;;8.38;;
31594;SDS011;18200;48.726;8.892;2022-11-12T15:14:45;12.90;;;9.52;;
31594;SDS011;18200;48.726;8.892;2022-11-12T15:19:23;10.65;;;7.97;;
31594;SDS011;18200;48.726;8.892;2022-11-12T15:24:02;11.52;;;8.18;;
31594;SDS011;18200;48.726;8.892;2022-11-12T15:28:24;14.20;;;9.63;;
31594;SDS011;18200;48.726;8.892;2022-11-12T15:32:44;13.15;;;8.48;;
31594;SDS011;18200;48.726;8.892;2022-11-12T15:37:04;11.10;;;8.57;;
31594;SDS011;18200;48.726;8.892;2022-11-12T15:41:28;14.23;;;11.02;;
31594;SDS011;18200;48.726;8.892;2022-11-12T15:45:49;11.60;;;9.27;;
31594;SDS011;18200;48.726;8.892;2022-11-12T15:54:31;17.48;;;11.10;;
31594;SDS011;18200;48.726;8.892;2022-11-12T15:58:49;18.08;;;11.45;;
31594;SDS011;18200;48.726;8.892;2022-11-12T16:03:18;19.17;;;13.05;;
31594;SDS011;18200;48.726;8.892;2022-11-12T16:07:38;16.92;;;10.93;;
31594;SDS011;18200;48.726;8.892;2022-11-12T16:11:58;19.08;;;12.07;;
31594;SDS011;18200;48.726;8.892;2022-11-12T16:16:18;14.80;;;10.88;;
31594;SDS011;18200;48.726;8.892;2022-11-12T16:20:37;16.85;;;11.63;;
31594;SDS011;18200;48.726;8.892;2022-11-12T16:24:56;24.13;;;13.52;;
31594;SDS011;18200;48.726;8.892;2022-11-12T16:29:16;27.52;;;14.57;;
31594;SDS011;18200;48.726;8.892;2022-11-12T16:33:35;27.00;;;15.90;;
31594;SDS011;18200;48.726;8.892;2022-11-12T16:37:54;21.10;;;13.15;;
31594;SDS011;18200;48.726;8.892;2022-11-12T16:42:13;21.73;;;12.30;;
31594;SDS011;18200;48.726;8.892;2022-11-12T16:46:35;25.80;;;14.75;;
31594;SDS011;18200;48.726;8.892;2022-11-12T16:50:58;18.73;;;11.88;;
31594;SDS011;18200;48.726;8.892;2022-11-12T16:55:18;22.20;;;14.55;;
31594;SDS011;18200;48.726;8.892;2022-11-12T16:59:38;21.90;;;14.77;;
31594;SDS011;18200;48.726;8.892;2022-11-12T17:03:57;28.88;;;17.10;;
31594;SDS011;18200;48.726;8.892;2022-11-12T17:08:16;31.58;;;17.25;;
31594;SDS011;18200;48.726;8.892;2022-11-12T17:12:35;28.13;;;17.48;;
31594;SDS011;18200;48.726;8.892;2022-11-12T17:16:54;36.03;;;17.45;;
31594;SDS011;18200;48.726;8.892;2022-11-12T17:21:15;30.23;;;16.88;;
31594;SDS011;18200;48.726;8.892;2022-11-12T17:25:35;46.67;;;27.83;;
31594;SDS011;18200;48.726;8.892;2022-11-12T17:29:54;42.55;;;27.05;;
31594;SDS011;18200;48.726;8.892;2022-11-12T17:34:13;34.75;;;20.73;;
31594;SDS011;18200;48.726;8.892;2022-11-12T17:38:33;29.75;;;18.17;;
31594;SDS011;18200;48.726;8.892;2022-11-12T17:42:52;34.80;;;19.02;;
31594;SDS011;18200;48.726;8.892;2022-11-12T17:47:11;31.00;;;18.35;;
31594;SDS011;18200;48.726;8.892;2022-11-12T17:51:30;28.48;;;18.75;;
31594;SDS011;18200;48.726;8.892;2022-11-12T17:55:54;28.48;;;18.17;;
31594;SDS011;18200;48.726;8.892;2022-11-12T18:00:14;28.73;;;17.67;;
31594;SDS011;18200;48.726;8.892;2022-11-12T18:04:33;29.60;;;18.98;;
31594;SDS011;18200;48.726;8.892;2022-11-12T18:08:53;31.67;;;20.88;;
31594;SDS011;18200;48.726;8.892;2022-11-12T18:13:14;38.47;;;24.27;;
31594;SDS011;18200;48.726;8.892;2022-11-12T18:17:33;46.70;;;25.42;;
31594;SDS011;18200;48.726;8.892;2022-11-12T18:21:53;38.83;;;25.05;;
31594;SDS011;18200;48.726;8.892;2022-11-12T18:26:15;34.55;;;19.73;;
31594;SDS011;18200;48.726;8.892;2022-11-12T18:30:36;34.53;;;21.70;;
31594;SDS011;18200;48.726;8.892;2022-11-12T18:34:55;41.63;;;26.95;;
31594;SDS011;18200;48.726;8.892;2022-11-12T18:39:14;29.80;;;21.40;;
31594;SDS011;18200;48.726;8.892;2022-11-12T18:43:37;44.15;;;28.08;;
31594;SDS011;18200;48.726;8.892;2022-11-12T18:47:56;38.97;;;22.42;;
31594;SDS011;18200;48.726;8.892;2022-11-12T18:52:15;37.50;;;22.48;;
31594;SDS011;18200;48.726;8.892;2022-11-12T18:56:34;62.90;;;36.17;;
31594;SDS011;18200;48.726;8.892;2022-11-12T19:01:00;77.60;;;44.30;;
31594;SDS011;18200;48.726;8.892;2022-11-12T19:05:21;53.60;;;32.90;;
31594;SDS011;18200;48.726;8.892;2022-11-12T19:09:40;32.03;;;21.02;;
31594;SDS011;18200;48.726;8.892;2022-11-12T19:13:58;39.28;;;26.13;;
31594;SDS011;18200;48.726;8.892;2022-11-12T19:18:17;37.58;;;23.02;;
31594;SDS011;18200;48.726;8.892;2022-11-12T19:22:37;29.70;;;18.83;;
31594;SDS011;18200;48.726;8.892;2022-11-12T19:26:56;26.58;;;14.95;;
31594;SDS011;18200;48.726;8.892;2022-11-12T19:31:17;24.65;;;14.75;;
31594;SDS011;18200;48.726;8.892;2022-11-12T19:35:38;18.20;;;11.77;;
31594;SDS011;18200;48.726;8.892;2022-11-12T19:39:58;26.27;;;17.52;;
31594;SDS011;18200;48.726;8.892;2022-11-12T19:44:16;35.10;;;22.80;;
31594;SDS011;18200;48.726;8.892;2022-11-12T19:48:36;33.53;;;20.83;;
31594;SDS011;18200;48.726;8.892;2022-11-12T19:52:55;35.05;;;22.02;;
31594;SDS011;18200;48.726;8.892;2022-11-12T19:57:15;34.30;;;20.70;;
31594;SDS011;18200;48.726;8.892;2022-11-12T20:01:34;34.50;;;22.73;;
31594;SDS011;18200;48.726;8.892;2022-11-12T20:05:58;50.78;;;26.52;;
31594;SDS011;18200;48.726;8.892;2022-11-12T20:10:17;39.75;;;24.42;;
31594;SDS011;18200;48.726;8.892;2022-11-12T20:14:37;28.58;;;19.13;;
31594;SDS011;18200;48.726;8.892;2022-11-12T20:18:56;35.00;;;21.85;;
31594;SDS011;18200;48.726;8.892;2022-11-12T20:23:15;47.85;;;25.45;;
31594;SDS011;18200;48.726;8.892;2022-11-12T20:27:34;49.22;;;26.02;;
31594;SDS011;18200;48.726;8.892;2022-11-12T20:31:53;29.08;;;16.77;;
31594;SDS011;18200;48.726;8.892;2022-11-12T20:36:14;30.95;;;18.55;;
31594;SDS011;18200;48.726;8.892;2022-11-12T20:40:34;41.97;;;24.35;;
31594;SDS011;18200;48.726;8.892;2022-11-12T20:44:53;52.10;;;27.95;;
31594;SDS011;18200;48.726;8.892;2022-11-12T20:49:13;54.95;;;24.52;;
31594;SDS011;18200;48.726;8.892;2022-11-12T20:53:32;36.25;;;19.65;;
31594;SDS011;18200;48.726;8.892;2022-11-12T20:57:51;34.13;;;21.15;;
31594;SDS011;18200;48.726;8.892;2022-11-12T21:02:10;26.00;;;17.05;;
31594;SDS011;18200;48.726;8.892;2022-11-12T21:06:29;29.83;;;18.60;;
31594;SDS011;18200;48.726;8.892;2022-11-12T21:10:50;34.05;;;19.35;;
31594;SDS011;18200;48.726;8.892;2022-11-12T21:15:14;33.10;;;19.85;;
31594;SDS011;18200;48.726;8.892;2022-11-12T21:19:33;31.92;;;19.45;;
31594;SDS011;18200;48.726;8.892;2022-11-12T21:23:52;33.13;;;18.73;;
31594;SDS011;18200;48.726;8.892;2022-11-12T21:28:12;29.13;;;18.35;;
31594;SDS011;18200;48.726;8.892;2022-11-12T21:32:32;35.30;;;20.02;;
31594;SDS011;18200;48.726;8.892;2022-11-12T21:36:50;36.63;;;20.70;;
31594;SDS011;18200;48.726;8.892;2022-11-12T21:41:10;44.97;;;23.15;;
31594;SDS011;18200;48.726;8.892;2022-11-12T21:45:31;57.38;;;28.77;;
31594;SDS011;18200;48.726;8.892;2022-11-12T21:49:50;46.20;;;24.75;;
31594;SDS011;18200;48.726;8.892;2022-11-12T21:54:09;41.75;;;24.23;;
31594;SDS011;18200;48.726;8.892;2022-11-12T21:58:34;47.85;;;27.10;;
31594;SDS011;18200;48.726;8.892;2022-11-12T22:02:54;49.33;;;24.85;;
31594;SDS011;18200;48.726;8.892;2022-11-12T22:07:13;42.80;;;22.95;;
31594;SDS011;18200;48.726;8.892;2022-11-12T22:11:33;65.32;;;32.47;;
31594;SDS011;18200;48.726;8.892;2022-11-12T22:15:52;83.38;;;39.28;;
31594;SDS011;18200;48.726;8.892;2022-11-12T22:20:11;61.45;;;28.98;;
31594;SDS011;18200;48.726;8.892;2022-11-12T22:24:30;54.08;;;26.17;;
31594;SDS011;18200;48.726;8.892;2022-11-12T22:28:50;46.30;;;23.42;;
31594;SDS011;18200;48.726;8.892;2022-11-12T22:33:16;49.35;;;24.92;;
31594;SDS011;18200;48.726;8.892;2022-11-12T22:37:35;54.90;;;27.13;;
31594;SDS011;18200;48.726;8.892;2022-11-12T22:41:54;50.97;;;26.60;;
31594;SDS011;18200;48.726;8.892;2022-11-12T22:46:20;52.63;;;26.95;;
31594;SDS011;18200;48.726;8.892;2022-11-12T22:50:42;137.90;;;67.10;;
31594;SDS011;18200;48.726;8.892;2022-11-12T22:55:02;39.35;;;21.48;;
31594;SDS011;18200;48.726;8.892;2022-11-12T22:59:21;32.05;;;16.63;;
31594;SDS011;18200;48.726;8.892;2022-11-12T23:03:40;31.13;;;16.95;;
31594;SDS011;18200;48.726;8.892;2022-11-12T23:07:59;27.38;;;16.10;;
31594;SDS011;18200;48.726;8.892;2022-11-12T23:12:18;29.35;;;17.45;;
31594;SDS011;18200;48.726;8.892;2022-11-12T23:16:37;38.22;;;19.88;;
31594;SDS011;18200;48.726;8.892;2022-11-12T23:21:00;42.33;;;22.75;;
31594;SDS011;18200;48.726;8.892;2022-11-12T23:25:23;48.30;;;25.42;;
31594;SDS011;18200;48.726;8.892;2022-11-12T23:29:42;42.00;;;22.00;;
31594;SDS011;18200;48.726;8.892;2022-11-12T23:34:01;34.33;;;18.08;;
31594;SDS011;18200;48.726;8.892;2022-11-12T23:38:20;38.97;;;19.63;;
31594;SDS011;18200;48.726;8.892;2022-11-12T23:42:39;41.58;;;19.48;;
31594;SDS011;18200;48.726;8.892;2022-11-12T23:46:58;42.40;;;19.35;;
31594;SDS011;18200;48.726;8.892;2022-11-12T23:51:18;40.50;;;19.15;;
31594;SDS011;18200;48.726;8.892;2022-11-12T23:55:41;41.80;;;18.65;;
